Time;durP1;ratioP1;P1;durP2;ratioP2;P2;SDS_P1;SDS_P2;PMS_P1;PMS_P2;Temp;Humidity;BMP_temperature;BMP_pressure;BME280_temperature;BME280_humidity;BME280_pressure;Samples;Min_cycle;Max_cycle;Signal;HPM_P1;HPM_P2
2023/05/07 00:02:14;;;;;;;2.60;2.40;;;18.10;99.90;;;18.47;69.41;100545.47;5069264;28;21234;-67
2023/05/07 00:04:41;;;;;;;1.80;1.70;;;18.10;99.90;;;18.45;69.33;100542.16;5070878;28;20650;-67
2023/05/07 00:07:07;;;;;;;2.97;2.20;;;18.10;99.90;;;18.41;69.78;100538.16;5043200;28;20625;-67
2023/05/07 00:09:34;;;;;;;1.67;1.57;;;18.10;99.90;;;18.39;70.03;100534.00;5072882;28;20610;-65
2023/05/07 00:12:02;;;;;;;3.40;1.80;;;18.00;99.90;;;18.35;70.02;100532.69;5075181;28;20654;-68
2023/05/07 00:14:29;;;;;;;1.73;1.70;;;18.00;99.90;;;18.32;70.11;100530.34;5063959;28;21060;-66
2023/05/07 00:16:56;;;;;;;2.20;2.10;;;18.00;99.90;;;18.32;70.25;100525.06;5040028;28;20645;-69
2023/05/07 00:19:23;;;;;;;1.77;1.73;;;18.00;99.90;;;18.26;70.74;100526.56;5066484;28;20696;-66
2023/05/07 00:21:50;;;;;;;2.17;2.03;;;17.90;99.90;;;18.23;70.59;100526.06;5065924;28;20641;-67
2023/05/07 00:24:16;;;;;;;2.40;2.30;;;17.90;99.90;;;18.22;70.36;100519.97;5064503;28;20662;-67
2023/05/07 00:26:43;;;;;;;2.57;2.37;;;17.90;99.90;;;18.18;70.77;100529.19;5068696;28;20622;-67
2023/05/07 00:29:10;;;;;;;2.03;1.93;;;17.80;99.90;;;18.14;70.88;100524.38;5050723;28;21197;-67
2023/05/07 00:31:37;;;;;;;1.70;1.60;;;17.80;99.90;;;18.09;70.88;100529.31;5063705;28;20659;-66
2023/05/07 00:34:04;;;;;;;1.90;1.80;;;17.70;99.90;;;18.04;71.16;100521.88;5067771;28;21502;-68
2023/05/07 00:36:31;;;;;;;1.90;1.80;;;17.70;99.90;;;18.00;71.43;100532.91;5071427;28;20641;-66
2023/05/07 00:39:03;;;;;;;1.50;1.50;;;17.60;99.90;;;17.99;71.66;100531.28;5072439;28;21226;-67
2023/05/07 00:41:32;;;;;;;1.93;1.83;;;17.60;99.90;;;17.95;71.89;100530.78;5072752;28;21054;-66
2023/05/07 00:44:00;;;;;;;2.63;2.43;;;17.60;99.90;;;17.97;71.72;100522.69;5072439;28;20649;-66
2023/05/07 00:46:27;;;;;;;2.27;2.17;;;17.60;99.90;;;17.95;71.94;100519.38;5071511;28;20634;-66
2023/05/07 00:48:54;;;;;;;1.80;1.80;;;17.50;99.90;;;17.93;71.92;100519.53;5070577;28;20642;-66
2023/05/07 00:51:23;;;;;;;2.30;2.20;;;;;;;17.87;72.17;100520.16;5071346;28;20668;-67
2023/05/07 00:53:50;;;;;;;2.00;1.90;;;17.40;99.90;;;17.82;72.13;100519.84;5054946;28;20643;-66
2023/05/07 00:56:17;;;;;;;2.50;2.30;;;17.40;99.90;;;17.80;72.46;100516.53;5071832;28;21051;-68
2023/05/07 00:58:44;;;;;;;1.80;1.70;;;17.40;99.90;;;17.75;72.52;100509.09;5044195;28;20650;-67
2023/05/07 01:01:11;;;;;;;1.70;1.60;;;17.30;99.90;;;17.73;72.77;100516.34;5064069;28;20623;-67
2023/05/07 01:03:38;;;;;;;1.90;1.80;;;17.30;99.90;;;17.69;72.98;100506.25;5066060;28;21308;-66
2023/05/07 01:06:07;;;;;;;1.90;1.80;;;17.30;99.90;;;17.67;72.72;100501.16;5065751;28;20689;-67
2023/05/07 01:08:36;;;;;;;2.50;2.33;;;17.30;99.90;;;17.69;72.61;100495.69;5055066;28;20647;-66
2023/05/07 01:11:03;;;;;;;2.37;2.23;;;17.30;99.90;;;17.68;72.50;100501.94;5053556;28;20659;-68
2023/05/07 01:13:31;;;;;;;2.07;1.97;;;17.30;99.90;;;17.66;72.90;100498.66;5071113;28;20657;-66
2023/05/07 01:15:58;;;;;;;2.63;2.43;;;17.20;99.90;;;17.66;72.78;100498.66;5069891;28;21337;-66
2023/05/07 01:18:26;;;;;;;2.67;2.47;;;17.20;99.90;;;17.62;72.99;100502.59;5071534;28;20623;-66
2023/05/07 01:20:56;;;;;;;2.10;2.00;;;17.20;99.90;;;17.57;73.49;100499.59;5071605;28;20614;-66
2023/05/07 01:23:23;;;;;;;2.17;2.07;;;17.20;99.90;;;17.53;73.66;100503.53;5053331;28;20650;-66
2023/05/07 01:25:54;;;;;;;2.57;2.40;;;17.10;99.90;;;17.49;74.08;100502.16;5071926;28;20602;-67
2023/05/07 01:28:21;;;;;;;1.93;1.87;;;17.10;99.90;;;17.45;74.43;100500.81;5070525;28;20638;-66
2023/05/07 01:30:53;;;;;;;2.60;2.50;;;17.00;99.90;;;17.43;74.13;100498.34;5071817;28;21190;-68
2023/05/07 01:33:21;;;;;;;1.70;1.60;;;17.00;99.90;;;17.44;74.50;100499.19;5053444;28;20657;-67
2023/05/07 01:35:53;;;;;;;2.03;1.83;;;17.00;99.90;;;17.42;74.60;100480.84;5072416;28;20985;-67
2023/05/07 01:38:22;;;;;;;2.50;2.40;;;17.00;99.90;;;17.36;74.91;100489.41;5047118;28;20634;-68
2023/05/07 01:40:49;;;;;;;2.87;2.00;;;16.90;99.90;;;17.36;74.67;100496.47;5051116;28;20680;-67
2023/05/07 01:43:16;;;;;;;1.87;1.80;;;16.90;99.90;;;17.34;75.22;100491.38;5051809;28;21324;-67
2023/05/07 01:45:44;;;;;;;2.57;2.30;;;16.90;99.90;;;17.32;75.08;100501.25;5051971;28;20621;-67
2023/05/07 01:48:12;;;;;;;2.47;2.30;;;16.90;99.90;;;17.29;75.48;100492.84;5065943;28;21187;-67
2023/05/07 01:50:40;;;;;;;1.87;1.77;;;16.90;99.90;;;17.28;75.49;100493.81;5040992;28;20623;-66
2023/05/07 01:53:07;;;;;;;2.10;2.00;;;16.80;99.90;;;17.28;75.33;100496.44;5052250;28;20689;-66
2023/05/07 01:55:34;;;;;;;1.90;1.80;;;16.80;99.90;;;17.26;75.43;100498.41;5061671;28;21174;-67
2023/05/07 01:58:00;;;;;;;2.40;2.17;;;16.80;99.90;;;17.21;75.81;100503.31;5067937;28;20639;-66
2023/05/07 02:00:27;;;;;;;2.10;2.00;;;16.80;99.90;;;17.18;75.47;100499.22;5068296;28;20676;-67
2023/05/07 02:02:54;;;;;;;2.43;2.23;;;16.70;99.90;;;17.18;75.96;100501.00;5052813;28;21250;-66
2023/05/07 02:05:22;;;;;;;2.30;2.10;;;16.80;99.90;;;17.16;76.25;100503.81;5069536;28;21051;-66
2023/05/07 02:07:49;;;;;;;3.40;2.30;;;16.70;99.90;;;17.14;76.65;100497.03;5054306;28;20639;-66
2023/05/07 02:10:15;;;;;;;2.23;2.03;;;16.70;99.90;;;17.12;76.40;100499.00;5067945;28;20688;-66
2023/05/07 02:12:42;;;;;;;2.30;2.20;;;16.70;99.90;;;17.08;76.73;100499.28;5070231;28;20678;-68
2023/05/07 02:15:10;;;;;;;2.93;2.63;;;16.70;99.90;;;17.05;77.37;100504.91;5069741;28;20662;-64
2023/05/07 02:18:09;;;;;;;2.20;2.10;;;16.60;99.90;;;17.00;77.13;100503.69;5068297;28;20657;-69
2023/05/07 02:20:35;;;;;;;1.90;1.80;;;16.60;99.90;;;16.97;77.31;100504.00;5051624;28;20635;-67
2023/05/07 02:23:02;;;;;;;2.03;1.93;;;16.50;99.90;;;16.94;77.92;100513.03;5069865;28;20665;-67
2023/05/07 02:25:29;;;;;;;2.00;1.90;;;16.50;99.90;;;16.93;77.57;100508.75;5070273;28;20634;-66
2023/05/07 02:27:57;;;;;;;2.00;1.90;;;16.50;99.90;;;16.88;78.00;100508.41;5070004;28;20634;-68
2023/05/07 02:30:25;;;;;;;2.20;2.10;;;16.50;99.90;;;16.85;78.09;100500.78;5071042;28;20661;-66
2023/05/07 02:32:52;;;;;;;2.20;2.10;;;16.50;99.90;;;16.83;78.21;100513.28;5070496;28;20666;-67
2023/05/07 02:35:19;;;;;;;1.87;1.77;;;16.40;99.90;;;16.84;78.21;100511.50;5070276;28;20650;-67
2023/05/07 02:37:46;;;;;;;1.50;1.50;;;16.40;99.90;;;16.80;78.75;100510.16;5071510;28;20974;-67
2023/05/07 02:40:13;;;;;;;1.90;1.80;;;16.40;99.90;;;16.84;78.76;100517.59;5069751;28;20657;-66
2023/05/07 02:42:40;;;;;;;1.40;1.40;;;16.40;99.90;;;16.84;79.05;100516.75;5066787;28;20658;-66
2023/05/07 02:45:08;;;;;;;1.90;1.80;;;16.40;99.90;;;16.81;78.26;100506.50;5063904;28;20638;-67
2023/05/07 02:47:35;;;;;;;1.93;1.80;;;16.40;99.90;;;16.78;78.36;100509.47;5070416;28;20627;-66
2023/05/07 02:50:03;;;;;;;2.00;1.90;;;16.40;99.90;;;16.71;79.13;100496.06;5069102;28;20631;-66
2023/05/07 02:52:30;;;;;;;2.20;2.10;;;16.30;99.90;;;16.68;78.95;100501.63;5063002;28;20704;-66
2023/05/07 02:54:57;;;;;;;1.93;1.83;;;16.30;99.90;;;16.63;79.42;100503.88;5070036;28;20630;-67
2023/05/07 02:57:23;;;;;;;1.80;1.70;;;16.20;99.90;;;16.60;79.37;100498.94;5070316;28;20611;-66
2023/05/07 02:59:51;;;;;;;2.20;2.10;;;16.20;99.90;;;16.58;79.91;100500.06;5069426;28;20625;-66
2023/05/07 03:02:18;;;;;;;2.67;2.03;;;16.20;99.90;;;16.57;80.06;100499.22;5068901;28;20692;-66
2023/05/07 03:04:45;;;;;;;2.00;1.73;;;16.20;99.90;;;16.53;79.76;100508.41;5075196;22;20791;-64
2023/05/07 03:07:12;;;;;;;3.10;2.13;;;16.20;99.90;;;16.48;80.00;100500.13;5051065;28;20631;-65
2023/05/07 03:09:39;;;;;;;2.00;1.90;;;16.10;99.90;;;16.45;80.66;100497.78;5054477;28;20650;-65
2023/05/07 03:12:06;;;;;;;2.07;1.97;;;16.10;99.90;;;16.42;81.22;100502.53;5054458;28;20656;-65
2023/05/07 03:14:33;;;;;;;2.50;2.40;;;16.00;99.90;;;16.39;81.09;100500.19;5070241;28;20650;-67
2023/05/07 03:17:00;;;;;;;2.50;2.40;;;16.00;99.90;;;16.35;81.41;100481.25;5068839;28;21467;-68
2023/05/07 03:19:27;;;;;;;2.93;2.73;;;16.00;99.90;;;16.29;81.21;100484.47;5070445;28;21205;-65
2023/05/07 03:21:55;;;;;;;2.60;2.40;;;15.90;99.90;;;16.20;82.21;100480.94;5068010;28;20611;-66
2023/05/07 03:24:22;;;;;;;3.17;2.90;;;15.80;99.90;;;16.14;82.23;100475.44;5051019;28;20639;-65
2023/05/07 03:26:49;;;;;;;2.70;2.40;;;15.70;99.90;;;16.10;83.08;100476.69;5050034;28;21174;-65
2023/05/07 03:29:16;;;;;;;2.73;2.57;;;15.70;99.90;;;16.08;82.85;100474.22;5050636;28;20626;-67
2023/05/07 03:31:43;;;;;;;2.77;2.60;;;15.70;99.90;;;16.09;82.64;100472.44;5051154;28;20754;-66
2023/05/07 03:34:10;;;;;;;2.30;2.20;;;15.70;99.90;;;16.12;82.91;100474.78;5061755;28;20681;-66
2023/05/07 03:36:37;;;;;;;4.47;2.60;;;15.70;99.90;;;16.08;83.03;100471.59;5069398;28;21027;-65
2023/05/07 03:39:04;;;;;;;2.20;2.10;;;15.70;99.90;;;16.07;83.63;100471.75;5058832;28;20632;-67
2023/05/07 03:41:32;;;;;;;2.50;2.40;;;15.70;99.90;;;16.06;83.75;100473.53;5049515;28;21187;-67
2023/05/07 03:43:59;;;;;;;2.83;2.63;;;15.70;99.90;;;16.05;83.70;100476.34;5053542;28;20659;-66
2023/05/07 03:46:28;;;;;;;2.57;2.37;;;15.60;99.90;;;16.07;83.66;100475.22;5050478;28;20650;-66
2023/05/07 03:48:55;;;;;;;2.20;2.10;;;15.70;99.90;;;16.09;83.91;100473.25;5052619;28;21201;-66
2023/05/07 03:51:22;;;;;;;2.50;2.40;;;15.70;99.90;;;16.14;83.96;100475.44;5063645;28;20630;-66
2023/05/07 03:53:49;;;;;;;2.87;2.67;;;15.70;99.90;;;16.17;83.88;100480.41;5068927;28;20706;-66
2023/05/07 03:56:15;;;;;;;2.07;1.97;;;15.80;99.90;;;16.15;83.79;100493.72;5060668;28;20626;-66
2023/05/07 03:58:45;;;;;;;2.40;2.27;;;15.70;99.90;;;16.13;83.87;100493.03;5062161;28;20680;-66
2023/05/07 04:01:12;;;;;;;1.97;1.87;;;15.70;99.90;;;16.11;84.02;100499.41;5069136;28;20626;-66
2023/05/07 04:03:39;;;;;;;2.40;2.30;;;15.70;99.90;;;16.13;83.83;100500.09;5067016;28;20670;-66
2023/05/07 04:06:06;;;;;;;2.03;1.93;;;15.70;99.90;;;16.13;84.66;100508.00;5063253;28;21185;-66
2023/05/07 04:08:33;;;;;;;2.40;1.83;;;15.80;99.90;;;16.17;84.44;100511.97;5070257;28;20642;-67
2023/05/07 04:11:00;;;;;;;2.00;1.80;;;15.80;99.90;;;16.20;83.69;100503.81;5072370;28;20637;-66
2023/05/07 04:13:27;;;;;;;2.20;2.10;;;15.80;99.90;;;16.20;83.64;100499.38;5076466;28;20727;-66
2023/05/07 04:15:55;;;;;;;2.70;2.27;;;15.80;99.90;;;16.21;83.35;100497.53;5058576;28;20622;-66
2023/05/07 04:18:23;;;;;;;2.13;2.03;;;15.80;99.90;;;16.21;83.67;100502.81;5054749;28;20637;-65
2023/05/07 04:20:50;;;;;;;2.30;2.20;;;15.80;99.90;;;16.21;83.91;100502.81;5072345;28;20629;-66
2023/05/07 04:23:17;;;;;;;2.23;2.03;;;15.80;99.90;;;16.22;83.27;100502.69;5071717;28;20746;-65
2023/05/07 04:25:45;;;;;;;2.10;2.00;;;15.80;99.90;;;16.25;83.25;100506.78;5056357;28;20633;-65
2023/05/07 04:28:12;;;;;;;2.40;2.30;;;15.90;99.90;;;16.26;83.71;100505.84;5072340;28;21070;-66
2023/05/07 04:30:39;;;;;;;2.70;2.50;;;15.90;99.90;;;16.29;83.42;100510.81;5055211;28;20645;-65
2023/05/07 04:33:06;;;;;;;2.70;2.50;;;15.90;99.90;;;16.30;83.49;100515.91;5068266;28;20674;-67
2023/05/07 04:35:33;;;;;;;1.83;1.73;;;15.90;99.90;;;16.30;83.00;100510.66;5071762;28;20614;-68
2023/05/07 04:38:01;;;;;;;2.87;2.17;;;15.90;99.90;;;16.33;83.12;100510.34;5061231;28;20686;-66
2023/05/07 04:40:28;;;;;;;1.80;1.70;;;15.90;99.90;;;16.39;82.93;100518.63;5066945;28;20634;-66
2023/05/07 04:42:55;;;;;;;2.20;2.10;;;16.00;99.90;;;16.40;82.49;100513.19;5071721;28;20630;-66
2023/05/07 04:45:22;;;;;;;2.23;2.13;;;16.00;99.90;;;16.44;82.24;100508.47;5072415;28;20638;-67
2023/05/07 04:47:49;;;;;;;2.20;2.10;;;16.10;99.90;;;16.51;82.18;100515.66;5059024;28;20638;-65
2023/05/07 04:50:17;;;;;;;2.03;1.93;;;16.10;99.90;;;16.53;81.55;100510.22;5073169;28;20627;-65
2023/05/07 04:52:45;;;;;;;2.73;2.53;;;16.20;99.90;;;16.54;81.02;100507.47;5072128;28;20758;-66
2023/05/07 04:55:12;;;;;;;3.20;2.80;;;16.20;99.90;;;16.55;80.97;100517.00;5072937;28;20990;-65
2023/05/07 04:57:40;;;;;;;2.77;2.57;;;16.20;99.90;;;16.59;80.83;100517.53;5071763;28;21048;-65
2023/05/07 05:00:13;;;;;;;2.43;2.23;;;16.20;99.90;;;16.62;80.53;100525.13;5072927;28;20623;-66
2023/05/07 05:02:41;;;;;;;1.97;1.87;;;16.20;99.90;;;16.62;79.72;100520.69;5068589;28;20638;-66
2023/05/07 05:05:08;;;;;;;3.10;2.90;;;16.30;99.90;;;16.63;80.24;100518.91;5069143;28;20670;-66
2023/05/07 05:07:35;;;;;;;2.73;2.63;;;16.30;99.90;;;16.67;80.20;100518.44;5051894;28;20646;-66
2023/05/07 05:10:04;;;;;;;3.40;2.73;;;16.30;99.90;;;16.70;79.51;100525.19;5061474;28;20673;-66
2023/05/07 05:12:31;;;;;;;2.53;2.33;;;16.40;99.90;;;16.68;79.23;100522.72;5072527;28;20650;-66
2023/05/07 05:14:58;;;;;;;2.80;2.60;;;16.30;99.90;;;16.65;79.64;100530.91;5069253;28;21068;-66
2023/05/07 05:17:25;;;;;;;1.50;1.50;;;16.30;99.90;;;16.69;80.20;100528.81;5064954;28;20619;-67
2023/05/07 05:19:52;;;;;;;2.30;2.20;;;16.30;99.90;;;16.65;80.40;100528.28;5065918;28;20641;-66
2023/05/07 05:22:19;;;;;;;2.57;2.47;;;16.30;99.90;;;16.67;80.32;100531.63;5059547;28;20630;-67
2023/05/07 05:24:47;;;;;;;3.30;3.00;;;16.30;99.90;;;16.71;80.23;100537.41;5037651;28;20732;-66
2023/05/07 05:27:14;;;;;;;2.43;2.23;;;16.30;99.90;;;16.77;80.16;100537.63;5064207;28;20621;-65
2023/05/07 05:29:41;;;;;;;2.67;2.47;;;16.40;99.90;;;16.81;80.02;100543.41;5071605;28;20622;-65
2023/05/07 05:32:08;;;;;;;2.67;2.47;;;16.40;99.90;;;16.89;79.77;100557.47;5069472;28;20628;-66
2023/05/07 05:34:35;;;;;;;2.30;2.20;;;16.50;99.90;;;17.00;79.62;100553.75;5064501;28;20650;-67
2023/05/07 05:37:02;;;;;;;2.03;1.93;;;16.60;99.90;;;17.12;78.86;100551.72;5071582;28;20610;-68
2023/05/07 05:39:29;;;;;;;4.60;1.83;;;16.70;99.90;;;17.24;78.79;100553.13;5047450;28;20631;-66
2023/05/07 05:41:56;;;;;;;1.80;1.70;;;16.80;99.90;;;17.32;78.16;100553.16;5063383;28;21008;-66
2023/05/07 05:44:23;;;;;;;2.10;1.90;;;16.90;99.90;;;17.40;78.01;100553.25;5057375;28;21332;-66
2023/05/07 05:46:49;;;;;;;2.13;2.00;;;17.00;99.90;;;17.44;77.83;100550.09;5050200;28;21029;-64
2023/05/07 05:49:17;;;;;;;1.90;1.80;;;17.00;99.90;;;17.52;77.34;100555.47;5062286;28;20673;-66
2023/05/07 05:51:44;;;;;;;1.87;1.77;;;17.10;99.90;;;17.61;77.27;100553.72;5071274;28;21182;-66
2023/05/07 05:54:10;;;;;;;2.40;2.30;;;17.20;99.90;;;17.67;76.68;100553.09;5070282;28;20670;-65
2023/05/07 05:56:38;;;;;;;1.97;1.87;;;17.30;99.90;;;17.72;76.81;100554.25;5036756;28;20630;-66
2023/05/07 05:59:05;;;;;;;1.77;1.67;;;17.30;99.90;;;17.79;76.80;100549.16;5067111;28;20657;-66
2023/05/07 06:01:32;;;;;;;2.10;2.00;;;17.40;99.90;;;17.91;76.47;100560.28;5044568;28;20672;-69
2023/05/07 06:03:59;;;;;;;1.87;1.77;;;17.50;99.90;;;18.08;75.94;100568.09;5048542;28;20677;-66
2023/05/07 06:06:27;;;;;;;1.70;1.70;;;17.70;99.90;;;18.33;75.61;100563.72;5067003;28;20697;-66
2023/05/07 06:08:54;;;;;;;1.63;1.53;;;17.90;99.90;;;18.57;74.30;100555.84;5061339;28;20619;-67
2023/05/07 06:11:21;;;;;;;1.90;1.80;;;18.10;99.90;;;18.76;73.43;100554.75;5063232;28;20646;-66
2023/05/07 06:13:48;;;;;;;2.10;2.00;;;18.30;99.90;;;18.88;72.90;100554.25;5058441;28;20686;-66
2023/05/07 06:16:15;;;;;;;2.10;2.00;;;18.50;99.90;;;18.99;72.70;100547.78;5065712;28;20629;-66
2023/05/07 06:18:42;;;;;;;1.90;1.80;;;18.60;99.90;;;19.14;72.42;100551.41;5061839;28;20619;-68
2023/05/07 06:21:10;;;;;;;2.20;2.10;;;18.70;99.90;;;19.28;72.08;100543.63;5058167;28;20640;-66
2023/05/07 06:23:36;;;;;;;2.30;2.20;;;18.90;99.90;;;19.45;71.59;100556.84;5050777;28;21105;-66
2023/05/07 06:26:03;;;;;;;2.30;2.17;;;19.00;99.90;;;19.53;71.04;100555.00;5058545;28;21187;-66
2023/05/07 06:28:35;;;;;;;2.37;2.27;;;19.10;99.90;;;19.68;70.98;100563.06;5065273;28;20627;-66
2023/05/07 06:31:20;;;;;;;2.97;2.80;;;19.20;99.90;;;19.73;70.35;100566.88;5069725;28;20627;-66
2023/05/07 06:33:47;;;;;;;3.33;2.50;;;19.40;99.90;;;19.72;69.87;100567.84;5070090;28;20673;-66
2023/05/07 06:36:14;;;;;;;2.90;2.67;;;19.40;99.90;;;19.65;69.88;100568.72;5069192;28;20614;-66
2023/05/07 06:38:41;;;;;;;3.00;2.80;;;19.30;99.90;;;19.43;71.06;100575.53;5062336;28;20705;-66
2023/05/07 06:41:08;;;;;;;2.97;2.77;;;19.10;99.90;;;19.32;71.76;100559.97;5067104;28;21268;-68
2023/05/07 06:43:35;;;;;;;2.67;2.47;;;19.00;99.90;;;19.31;71.21;100563.63;5068975;28;21241;-65
2023/05/07 06:46:02;;;;;;;3.30;3.10;;;18.90;99.90;;;19.30;70.81;100552.22;5059708;28;20643;-69
2023/05/07 06:48:32;;;;;;;3.13;2.13;;;18.90;99.90;;;19.32;70.14;100552.88;5062180;28;20634;-65
2023/05/07 06:51:02;;;;;;;2.40;2.30;;;18.90;99.90;;;19.33;70.25;100553.72;5043892;28;20646;-68
2023/05/07 06:53:30;;;;;;;1.93;1.83;;;19.00;99.90;;;19.50;70.09;100558.00;5060964;28;20716;-67
2023/05/07 06:55:57;;;;;;;2.17;2.07;;;19.10;99.90;;;19.64;69.70;100557.28;5063798;28;20626;-65
2023/05/07 06:58:24;;;;;;;1.73;1.63;;;19.20;99.90;;;19.82;69.84;100562.38;5062330;28;20631;-67
2023/05/07 07:00:51;;;;;;;2.60;2.50;;;19.40;99.90;;;19.86;69.50;100561.84;5064730;28;20633;-66
2023/05/07 07:03:18;;;;;;;1.93;1.83;;;19.50;99.90;;;19.91;68.96;100564.78;5060912;28;20689;-67
2023/05/07 07:05:45;;;;;;;1.90;1.80;;;19.50;99.90;;;19.96;69.36;100566.94;5064409;28;21190;-68
2023/05/07 07:08:12;;;;;;;3.30;3.10;;;19.50;99.90;;;20.13;69.16;100565.88;5046964;28;20639;-65
2023/05/07 07:10:39;;;;;;;3.20;3.00;;;19.70;99.90;;;20.32;68.06;100572.56;5063351;28;20718;-67
2023/05/07 07:13:06;;;;;;;2.70;2.60;;;19.90;99.90;;;20.37;67.40;100564.94;5060703;28;21216;-68
2023/05/07 07:15:33;;;;;;;2.37;2.27;;;20.00;99.90;;;20.35;67.16;100564.28;5065551;28;20637;-67
2023/05/07 07:18:04;;;;;;;3.10;2.70;;;20.00;99.90;;;20.42;67.21;100578.50;5060485;28;20626;-66
2023/05/07 07:20:31;;;;;;;2.50;2.07;;;20.00;99.90;;;20.48;66.60;100569.84;5059505;28;20624;-67
2023/05/07 07:23:00;;;;;;;2.67;2.47;;;20.10;99.90;;;20.55;66.34;100582.22;5056219;28;20635;-68
2023/05/07 07:25:27;;;;;;;2.40;2.20;;;20.10;99.90;;;20.59;65.21;100583.50;5071047;28;20626;-65
2023/05/07 07:27:55;;;;;;;1.90;1.80;;;20.20;99.90;;;20.61;64.78;100586.00;5069883;28;20969;-66
2023/05/07 07:30:22;;;;;;;1.83;1.73;;;20.20;99.90;;;20.68;64.82;100577.16;5071007;28;20622;-67
2023/05/07 07:32:49;;;;;;;1.80;1.70;;;20.30;99.90;;;20.80;64.63;100583.72;5061300;28;20670;-67
2023/05/07 07:35:16;;;;;;;1.30;1.30;;;20.40;99.90;;;20.85;63.86;100589.28;5049953;28;20616;-67
2023/05/07 07:37:43;;;;;;;4.10;2.50;;;20.40;99.90;;;20.85;63.48;100589.28;5056318;28;20631;-67
2023/05/07 07:40:11;;;;;;;2.00;1.90;;;20.50;99.90;;;20.89;63.15;100595.91;5051106;28;20638;-64
2023/05/07 07:42:40;;;;;;;1.83;1.73;;;20.40;99.90;;;20.92;62.96;100601.84;5052831;28;20631;-70
2023/05/07 07:45:07;;;;;;;2.10;2.00;;;20.50;99.90;;;20.83;63.65;100591.31;5070021;28;20664;-65
2023/05/07 07:47:35;;;;;;;2.13;2.03;;;20.40;99.90;;;20.77;64.46;100589.38;5054122;28;20703;-66
2023/05/07 07:50:02;;;;;;;2.10;2.00;;;20.40;99.90;;;20.75;64.23;100593.19;5057112;28;21185;-66
2023/05/07 07:52:29;;;;;;;2.10;2.00;;;20.30;99.90;;;20.66;63.78;100599.53;5058532;28;20718;-66
2023/05/07 07:54:56;;;;;;;2.53;2.43;;;20.30;99.90;;;20.59;64.05;100594.09;5053922;28;21003;-67
2023/05/07 07:57:23;;;;;;;2.60;2.50;;;20.20;99.90;;;20.49;64.57;100593.53;5053756;28;20612;-67
2023/05/07 07:59:53;;;;;;;2.63;2.43;;;20.10;99.90;;;20.30;65.26;100593.13;5057866;28;20635;-67
2023/05/07 08:02:20;;;;;;;3.40;2.80;;;20.00;99.90;;;20.30;65.76;100593.13;5069689;28;21482;-67
2023/05/07 08:04:47;;;;;;;3.03;2.80;;;19.90;99.90;;;20.36;65.37;100592.47;5071824;28;20653;-68
2023/05/07 08:07:14;;;;;;;2.20;2.00;;;20.00;99.90;;;20.48;65.13;100601.66;5072094;28;20639;-69
2023/05/07 08:09:41;;;;;;;3.23;3.00;;;20.00;99.90;;;20.56;64.96;100604.25;5072071;28;21062;-67
2023/05/07 08:12:11;;;;;;;1.70;1.60;;;20.10;99.90;;;20.66;64.60;100604.84;5069153;28;20685;-70
2023/05/07 08:14:38;;;;;;;2.50;2.40;;;20.20;99.90;;;20.72;64.72;100606.81;5067553;28;20686;-69
2023/05/07 08:17:05;;;;;;;2.90;2.70;;;20.20;99.90;;;20.81;64.67;100598.59;5072617;28;20729;-70
2023/05/07 08:19:33;;;;;;;2.07;2.00;;;20.30;99.90;;;20.94;64.36;100608.63;5071423;28;21205;-69
2023/05/07 08:22:00;;;;;;;2.60;2.40;;;20.50;99.90;;;20.98;64.49;100609.09;5053154;28;20622;-69
2023/05/07 08:24:27;;;;;;;1.73;1.67;;;20.50;99.90;;;21.04;64.00;100606.59;5068233;28;20642;-69
2023/05/07 08:26:57;;;;;;;1.90;1.80;;;20.60;99.90;;;21.16;64.07;100615.78;5062649;28;20637;-71
2023/05/07 08:29:27;;;;;;;2.30;2.20;;;20.70;99.90;;;21.22;63.22;100615.06;5065864;28;20644;-69
2023/05/07 08:31:54;;;;;;;2.03;1.90;;;20.80;99.90;;;21.27;62.67;100611.88;5037413;28;20642;-68
2023/05/07 08:34:24;;;;;;;2.13;2.03;;;20.90;99.90;;;21.27;62.44;100610.06;5072545;28;20676;-67
2023/05/07 08:36:51;;;;;;;6.70;2.33;;;20.90;99.90;;;21.30;62.82;100615.00;5072021;28;20618;-68
2023/05/07 08:39:20;;;;;;;2.40;2.27;;;20.90;99.90;;;21.41;62.21;100611.06;5072723;28;20684;-67
2023/05/07 08:41:48;;;;;;;2.17;2.07;;;21.00;99.90;;;21.54;62.02;100619.25;5064460;28;20642;-69
2023/05/07 08:44:24;;;;;;;2.33;2.13;;;21.10;99.90;;;21.66;62.01;100625.75;5030608;28;20655;-71
2023/05/07 08:46:55;;;;;;;1.90;1.80;;;21.20;99.90;;;21.69;62.00;100624.56;5072372;28;20618;-68
2023/05/07 08:49:22;;;;;;;2.13;2.03;;;21.30;99.90;;;21.77;61.23;100622.66;5041244;28;21242;-68
2023/05/07 08:51:50;;;;;;;1.90;1.80;;;21.30;99.90;;;21.81;60.82;100621.28;5039423;28;20626;-68
2023/05/07 08:54:17;;;;;;;1.83;1.77;;;21.40;99.90;;;22.02;59.99;100617.94;5017768;28;20754;-69
2023/05/07 08:56:44;;;;;;;3.07;2.97;;;21.50;99.90;;;22.22;58.95;100624.31;5073179;28;20618;-67
2023/05/07 08:59:12;;;;;;;3.07;2.87;;;21.70;99.90;;;22.42;58.65;100620.06;5072342;28;20657;-67
2023/05/07 09:01:40;;;;;;;2.30;2.20;;;22.00;99.90;;;22.88;57.43;100613.44;5071436;28;20657;-71
2023/05/07 09:04:07;;;;;;;2.97;2.77;;;22.40;99.90;;;23.55;55.58;100605.00;5059016;22;20781;-69
2023/05/07 09:06:34;;;;;;;2.60;2.47;;;23.00;99.90;;;24.23;52.69;100604.19;5038050;28;20665;-68
2023/05/07 09:09:04;;;;;;;2.80;2.60;;;23.80;99.90;;;24.85;51.59;100609.31;5049137;28;20657;-67
2023/05/07 09:11:31;;;;;;;2.20;2.10;;;24.30;99.90;;;25.94;48.90;100619.31;5048027;28;20623;-68
2023/05/07 09:14:01;;;;;;;2.00;1.90;;;25.40;99.90;;;27.02;46.63;100613.91;5070762;28;20686;-68
2023/05/07 09:16:30;;;;;;;2.87;2.77;;;26.40;99.00;;;28.17;44.50;100615.91;5071074;28;20691;-70
2023/05/07 09:19:00;;;;;;;2.50;2.30;;;27.60;96.60;;;29.67;41.27;100620.88;5071126;28;20630;-69
2023/05/07 09:21:27;;;;;;;2.20;2.10;;;29.00;93.40;;;31.27;38.09;100614.34;5071296;28;20594;-69
2023/05/07 09:23:55;;;;;;;2.67;2.57;;;30.80;87.80;;;32.58;36.09;100602.66;5070198;28;21035;-66
2023/05/07 09:26:24;;;;;;;2.60;2.50;;;32.20;80.10;;;33.71;nan;100602.25;5057089;28;20634;-67
2023/05/07 09:28:52;;;;;;;5.20;4.00;;;33.60;72.90;;;34.44;nan;100613.91;5061900;28;20623;-66
2023/05/07 09:31:19;;;;;;;2.40;2.30;;;34.30;69.30;;;34.70;nan;100618.31;5065229;28;20616;-67
2023/05/07 09:33:47;;;;;;;0.83;0.83;;;34.70;65.90;;;33.95;nan;100611.53;5064921;28;20659;-66
2023/05/07 09:36:14;;;;;;;2.50;2.40;;;34.30;63.30;;;34.02;nan;100617.56;5070183;28;20697;-68
2023/05/07 09:38:42;;;;;;;2.00;2.00;;;34.10;63.10;;;34.68;nan;100615.88;5052836;28;21202;-65
2023/05/07 09:41:12;;;;;;;3.47;2.47;;;34.80;61.70;;;35.86;nan;100616.38;5053562;28;20634;-67
2023/05/07 09:43:40;;;;;;;2.50;2.30;;;35.90;60.10;;;36.83;nan;100610.16;5068267;28;20666;-67
2023/05/07 09:46:13;;;;;;;2.63;2.50;;;36.90;58.00;;;37.32;nan;100615.47;5045612;28;20691;-65
2023/05/07 09:48:44;;;;;;;2.00;1.90;;;37.60;56.20;;;37.03;nan;100615.47;5063041;28;20642;-67
2023/05/07 09:51:39;;;;;;;1.77;1.77;;;37.30;56.00;;;36.34;nan;100599.31;5069857;28;20966;-62
2023/05/07 09:54:07;;;;;;;1.60;1.53;;;36.80;54.60;;;35.48;nan;100598.03;5070874;28;21030;-65
2023/05/07 09:56:37;;;;;;;1.47;1.47;;;36.00;55.10;;;35.72;nan;100604.44;5058699;28;20688;-65
2023/05/07 09:59:06;;;;;;;1.83;1.83;;;35.90;55.40;;;36.30;nan;100605.59;5054194;28;21174;-66
2023/05/07 10:01:35;;;;;;;1.60;1.60;;;36.40;54.60;;;36.34;nan;100607.47;5064186;28;20640;-69
2023/05/07 10:04:04;;;;;;;2.17;2.07;;;36.40;54.40;;;36.87;nan;100594.06;5057250;28;20671;-68
2023/05/07 10:06:31;;;;;;;1.60;1.60;;;36.70;54.40;;;36.33;nan;100594.19;5049647;28;20636;-69
2023/05/07 10:08:59;;;;;;;1.60;1.60;;;36.20;54.00;;;36.38;nan;100591.41;5050261;28;20680;-67
2023/05/07 10:11:26;;;;;;;1.40;1.40;;;36.00;54.30;;;36.11;nan;100586.41;5045408;28;20719;-67
2023/05/07 10:13:53;;;;;;;1.67;1.57;;;35.60;54.40;;;35.65;nan;100582.25;5071486;28;20679;-69
2023/05/07 10:16:24;;;;;;;2.00;1.90;;;35.10;54.10;;;34.84;nan;100581.47;5063926;28;20619;-68